Terminal Aerodrome Forecast
Issued by NWS

Home | Current Version | Previous Version | Graphics & Text | Print | Product List | Glossary On
Versions: 1 2 3 4 5 6 7 8 9 10 11 12 13
000
FTUS45 KGGW 241120
TAFSDY
TAF
KSDY 241120Z 2412/2512 23004KT P6SM BKN090
     FM241500 24008KT P6SM BKN080
     FM250000 26007KT P6SM SCT150
     FM250600 02004KT P6SM BKN060
      AMD LTD TO CLD VIS AND WIND=

USA.gov is the U.S. government's official web portal to all federal, state and local government web resources and services.